Time;durP1;ratioP1;P1;durP2;ratioP2;P2;SDS_P1;SDS_P2;PMS_P1;PMS_P2;Temp;Humidity;BMP_temperature;BMP_pressure;BME280_temperature;BME280_humidity;BME280_pressure;Samples;Min_cycle;Max_cycle;Signal;HPM_P1;HPM_P2
2022/06/04 00:01:31;;;;;;;;;11.50;11.50;;;;;26.62;46.29;101096.34;146613;605;47010;-78
2022/06/04 00:04:23;;;;;;;;;14.75;14.00;;;;;26.55;45.95;101104.41;146609;590;46015;-77
2022/06/04 00:07:15;;;;;;;;;14.75;13.00;;;;;26.47;45.90;101092.00;146616;581;45021;-80
2022/06/04 00:16:38;;;;;;;;;15.25;14.25;;;;;26.16;46.58;101083.41;146610;609;47014;-85
2022/06/04 00:19:29;;;;;;;;;15.00;14.00;;;;;26.16;46.87;101075.44;146630;590;45020;-87
2022/06/04 00:22:22;;;;;;;;;14.50;14.50;;;;;26.13;46.86;101079.88;146631;569;46012;-84
2022/06/04 00:25:17;;;;;;;;;14.25;12.25;;;;;26.03;47.33;101081.72;146637;587;44038;-88
2022/06/04 00:28:11;;;;;;;;;18.50;16.50;;;;;25.91;47.01;101079.16;146629;647;45914;-81
2022/06/04 00:31:03;;;;;;;;;13.00;12.25;;;;;25.85;46.90;101077.41;146636;620;45010;-79
2022/06/04 00:33:55;;;;;;;;;13.50;12.75;;;;;25.88;47.01;101068.53;146629;579;45016;-78
2022/06/04 00:36:47;;;;;;;;;14.50;12.75;;;;;25.90;47.47;101070.31;146636;705;45010;-78
2022/06/04 00:39:40;;;;;;;;;14.25;14.25;;;;;25.87;47.55;101066.78;146628;570;45913;-78
2022/06/04 00:42:32;;;;;;;;;15.00;12.50;;;;;24.80;47.20;100882.41;146636;569;45010;-76
2022/06/04 00:46:05;;;;;;;;;12.50;12.50;;;;;24.67;46.32;100857.69;146631;565;45016;-78
2022/06/04 00:48:57;;;;;;;;;15.50;13.25;;;;;25.87;47.46;101066.78;146630;600;45010;-77
2022/06/04 00:51:54;;;;;;;;;15.25;14.50;;;;;25.88;46.79;101071.19;146631;577;46014;-75
2022/06/04 00:54:51;;;;;;;;;13.00;12.75;;;;;25.89;47.17;101065.91;146636;598;45020;-76
2022/06/04 00:58:07;;;;;;;;;14.50;14.25;;;;;25.93;46.16;101067.63;146628;643;45914;-76
2022/06/04 01:01:10;;;;;;;;;12.75;11.50;;;;;25.98;47.11;101064.91;146634;576;45020;-76
2022/06/04 01:04:50;;;;;;;;;12.50;12.00;;;;;25.90;47.31;101066.78;146631;575;45914;-77
2022/06/04 01:08:17;;;;;;;;;14.00;12.75;;;;;25.75;47.20;101068.59;146636;599;45010;-74
2022/06/04 01:11:36;;;;;;;;;14.75;13.75;;;;;25.61;48.72;101067.78;146630;635;45912;-78
2022/06/04 01:14:44;;;;;;;;;14.00;14.00;;;;;25.51;47.95;101074.94;146634;678;45020;-80
2022/06/04 01:18:34;;;;;;;;;14.25;12.25;;;;;24.31;47.83;100869.28;146624;590;45913;-82
2022/06/04 01:22:12;;;;;;;;;12.25;10.50;;;;;25.45;47.68;101068.72;146607;611;46014;-84
2022/06/04 01:25:58;;;;;;;;;14.75;14.25;;;;;24.27;47.36;100868.41;146610;582;46016;-82
2022/06/04 01:28:58;;;;;;;;;14.00;12.75;;;;;25.48;47.94;101071.37;146614;717;46021;-82
2022/06/04 01:32:37;;;;;;;;;13.00;11.75;;;;;24.36;46.79;100865.75;146611;604;46016;-82
2022/06/04 01:36:04;;;;;;;;;16.50;14.25;;;;;25.53;47.58;101066.94;146612;564;46029;-82
2022/06/04 01:39:10;;;;;;;;;15.75;14.00;;;;;25.48;47.89;101071.37;146609;619;47014;-82
2022/06/04 01:42:06;;;;;;;;;15.00;13.50;;;;;25.51;47.96;101064.31;146611;629;46021;-84
2022/06/04 01:45:01;;;;;;;;;12.75;12.75;;;;;25.60;48.13;101057.16;146609;642;46016;-80
2022/06/04 01:47:55;;;;;;;;;17.25;14.00;;;;;25.62;48.72;101066.00;146612;632;46029;-80
2022/06/04 01:50:55;;;;;;;;;15.00;12.25;;;;;25.56;48.09;101061.63;146610;604;46016;-79
2022/06/04 01:53:50;;;;;;;;;13.75;12.50;;;;;25.48;48.16;101064.31;146607;566;46010;-80
2022/06/04 01:56:49;;;;;;;;;16.25;14.25;;;;;25.48;48.38;101055.44;146609;572;46014;-75
2022/06/04 01:59:49;;;;;;;;;12.25;12.25;;;;;25.44;49.41;101062.53;146613;569;46020;-75
2022/06/04 02:03:17;;;;;;;;;14.00;13.00;;;;;25.32;49.25;101058.16;146611;612;46012;-79
2022/06/04 02:06:17;;;;;;;;;14.25;13.50;;;;;25.26;48.76;101052.00;146612;744;46014;-77
2022/06/04 02:09:19;;;;;;;;;13.75;11.00;;;;;25.29;49.70;101063.50;146611;589;46012;-78
2022/06/04 02:12:14;;;;;;;;;11.50;10.25;;;;;25.30;49.34;101069.72;146611;613;46020;-75
2022/06/04 02:15:17;;;;;;;;;14.50;13.00;;;;;25.28;48.27;101064.37;146609;596;46016;-79
2022/06/04 02:18:12;;;;;;;;;15.00;13.00;;;;;25.32;48.85;101065.25;146613;569;46010;-80
2022/06/04 02:21:05;;;;;;;;;11.75;11.75;;;;;25.38;48.98;101073.19;146611;629;46016;-86
2022/06/04 02:23:59;;;;;;;;;13.25;13.25;;;;;25.44;48.75;101077.59;146605;569;46014;-81
2022/06/04 02:26:52;;;;;;;;;16.25;13.00;;;;;25.47;49.12;101078.47;146608;582;47013;-80
2022/06/04 02:29:44;;;;;;;;;16.00;13.00;;;;;25.36;49.50;101069.69;146610;597;47010;-81
2022/06/04 02:33:04;;;;;;;;;15.50;15.50;;;;;25.25;49.00;101074.13;146610;610;47012;-81
2022/06/04 02:36:23;;;;;;;;;14.75;14.75;;;;;25.14;48.66;101076.84;146613;570;46020;-87
2022/06/04 02:39:40;;;;;;;;;15.75;13.25;;;;;25.08;48.36;101071.50;146613;613;45914;-83
2022/06/04 02:43:26;;;;;;;;;12.50;12.00;;;;;23.98;48.84;100889.66;146613;611;46020;-87
2022/06/04 02:46:56;;;;;;;;;15.25;13.50;;;;;25.01;49.08;101083.88;146607;689;47023;-76
2022/06/04 02:50:37;;;;;;;;;14.25;14.25;;;;;23.77;48.90;100873.78;146612;566;46013;-86
2022/06/04 02:53:34;;;;;;;;;13.50;11.50;;;;;24.91;51.22;101090.09;146609;607;47012;-83
2022/06/04 02:56:34;;;;;;;;;16.50;14.50;;;;;24.83;50.62;101094.56;146605;606;46021;-85
2022/06/04 02:59:30;;;;;;;;;16.50;14.00;;;;;24.77;50.84;101094.56;146608;577;46016;-86
2022/06/04 03:02:23;;;;;;;;;13.50;13.00;;;;;24.73;50.73;101104.28;146613;564;46020;-87
2022/06/04 03:05:22;;;;;;;;;12.00;12.00;;;;;24.77;50.03;101108.72;146612;565;46016;-81
2022/06/04 03:08:14;;;;;;;;;11.00;9.00;;;;;24.84;50.61;101107.81;146614;667;46010;-79
2022/06/04 03:11:06;;;;;;;;;14.50;12.25;;;;;24.88;50.93;101112.22;146611;575;46017;-77
2022/06/04 03:13:58;;;;;;;;;13.25;10.50;;;;;24.89;51.29;101121.97;146611;572;47020;-79
2022/06/04 03:16:52;;;;;;;;;11.25;11.25;;;;;24.89;50.96;101113.09;146610;612;46016;-82
2022/06/04 03:19:44;;;;;;;;;13.50;13.00;;;;;24.91;50.97;101107.81;146633;606;45033;-77
2022/06/04 03:22:37;;;;;;;;;12.50;10.75;;;;;24.95;51.14;101118.37;146629;688;46012;-81
2022/06/04 03:25:30;;;;;;;;;15.25;12.25;;;;;24.95;51.16;101117.50;146634;573;45010;-81
2022/06/04 03:28:23;;;;;;;;;13.25;13.25;;;;;24.94;51.19;101119.28;146634;610;45012;-83
2022/06/04 03:31:15;;;;;;;;;13.00;12.00;;;;;24.97;51.22;101123.72;146634;569;45010;-83
2022/06/04 03:34:08;;;;;;;;;12.00;9.25;;;;;24.96;51.73;101127.25;146632;565;45914;-82
2022/06/04 03:37:01;;;;;;;;;13.25;12.25;;;;;24.95;51.85;101133.44;146634;726;45010;-73
2022/06/04 03:39:53;;;;;;;;;11.75;10.75;;;;;24.97;51.43;101135.19;146632;572;45017;-73
2022/06/04 03:42:45;;;;;;;;;12.50;12.50;;;;;25.01;50.79;101136.06;146634;610;45021;-72
2022/06/04 03:45:37;;;;;;;;;11.25;11.25;;;;;25.10;50.90;101147.53;146628;622;46012;-73
2022/06/04 03:48:29;;;;;;;;;13.75;11.50;;;;;25.20;50.59;101145.78;146628;625;45021;-72
2022/06/04 03:51:22;;;;;;;;;14.00;14.00;;;;;25.30;50.40;101149.34;146632;563;45913;-72
2022/06/04 03:54:14;;;;;;;;;9.50;8.50;;;;;25.40;50.33;101150.19;146635;694;45011;-71
2022/06/04 04:00:36;;;;;;;;;11.75;10.50;;;;;25.72;49.27;101150.06;146634;618;45028;-71
2022/06/04 04:03:30;;;;;;;;;15.75;13.50;;;;;25.82;50.10;101145.63;146628;597;45013;-71
2022/06/04 04:06:28;;;;;;;;;11.50;11.50;;;;;25.95;50.30;101149.97;146634;600;45010;-72
2022/06/04 04:09:20;;;;;;;;;13.25;12.25;;;;;26.09;50.32;101160.53;146633;599;45017;-72
2022/06/04 04:12:12;;;;;;;;;11.00;10.50;;;;;26.18;50.02;101155.16;146633;583;45021;-72
2022/06/04 04:15:05;;;;;;;;;14.25;11.50;;;;;26.30;50.37;101159.53;146632;650;46014;-72
2022/06/04 04:17:57;;;;;;;;;14.75;12.00;;;;;26.45;49.70;101154.09;146624;579;47011;-72
2022/06/04 04:20:49;;;;;;;;;15.25;11.00;;;;;26.62;48.77;101154.00;146608;684;47012;-78
2022/06/04 04:23:44;;;;;;;;;14.75;12.00;;;;;26.80;48.57;101161.81;146608;608;46020;-77
2022/06/04 04:26:36;;;;;;;;;16.25;13.00;;;;;26.97;48.89;101166.97;146608;585;47012;-79
2022/06/04 04:29:29;;;;;;;;;14.75;13.75;;;;;26.12;47.90;101004.59;146613;571;46020;-81
2022/06/04 04:32:21;;;;;;;;;15.50;13.75;;;;;27.27;48.18;101179.16;146609;618;46017;-79
2022/06/04 04:35:18;;;;;;;;;15.25;14.00;;;;;27.40;47.36;101182.56;146611;584;47010;-77
2022/06/04 04:38:11;;;;;;;;;16.25;14.50;;;;;27.51;47.05;101188.66;146612;595;45913;-77
2022/06/04 04:41:03;;;;;;;;;14.00;13.75;;;;;27.63;46.78;101190.28;146612;618;46010;-77
2022/06/04 04:43:56;;;;;;;;;15.00;14.25;;;;;27.77;46.47;101192.78;146610;591;46913;-74
2022/06/04 04:46:48;;;;;;;;;12.75;12.75;;;;;27.87;46.47;101200.66;146613;640;46021;-72
2022/06/04 04:49:40;;;;;;;;;17.00;14.75;;;;;27.95;46.05;101195.25;146609;565;46014;-72
2022/06/04 04:52:32;;;;;;;;;15.25;13.75;;;;;28.07;46.17;101199.56;146606;563;46020;-73
2022/06/04 04:55:25;;;;;;;;;17.25;14.00;;;;;28.17;46.40;101202.97;146609;664;46017;-72
2022/06/04 04:58:17;;;;;;;;;13.50;11.50;;;;;28.26;46.27;101200.19;146611;579;46010;-73
2022/06/04 05:01:16;;;;;;;;;15.75;14.00;;;;;28.34;45.61;101192.94;146611;576;47015;-76
2022/06/04 05:04:09;;;;;;;;;13.75;12.25;;;;;28.36;45.38;101200.91;146613;593;46021;-80
2022/06/04 05:07:01;;;;;;;;;14.50;14.50;;;;;28.33;45.36;101196.50;146608;590;46016;-80
2022/06/04 05:09:53;;;;;;;;;15.00;13.00;;;;;28.27;45.38;101200.13;146613;654;46020;-78
2022/06/04 05:12:45;;;;;;;;;17.75;15.00;;;;;28.24;46.41;101204.62;146611;566;46016;-74
2022/06/04 05:15:38;;;;;;;;;16.00;14.00;;;;;28.30;45.51;101183.22;146613;579;46020;-74
2022/06/04 05:18:30;;;;;;;;;17.75;15.00;;;;;28.40;44.75;101181.28;146608;631;47014;-74
2022/06/04 05:21:31;;;;;;;;;16.25;14.00;;;;;28.49;44.75;101190.06;146605;571;47010;-73
2022/06/04 05:24:26;;;;;;;;;20.00;18.00;;;;;28.63;44.70;101192.53;146609;585;46914;-75
2022/06/04 05:27:19;;;;;;;;;20.75;17.25;;;;;28.78;44.08;101186.03;146611;591;46020;-74
2022/06/04 05:30:12;;;;;;;;;17.75;16.75;;;;;28.92;44.12;101178.69;146608;569;47012;-73
2022/06/04 05:33:04;;;;;;;;;19.75;16.75;;;;;29.12;43.76;101191.69;146611;679;47010;-71
2022/06/04 05:35:56;;;;;;;;;15.00;14.75;;;;;29.31;43.47;101192.25;146608;602;46012;-76
2022/06/04 05:38:48;;;;;;;;;17.75;15.00;;;;;29.45;42.77;101198.22;146612;566;47010;-82
2022/06/04 05:41:41;;;;;;;;;14.75;14.50;;;;;29.58;43.39;101196.19;146609;581;47012;-81
2022/06/04 05:44:33;;;;;;;;;22.00;16.25;;;;;29.69;43.03;101198.69;146606;571;47010;-75
2022/06/04 05:47:25;;;;;;;;;20.75;17.00;;;;;29.78;42.88;101185.09;146608;586;46012;-76
2022/06/04 05:50:17;;;;;;;;;17.00;14.75;;;;;29.89;43.07;101191.12;146606;642;47010;-76
2022/06/04 05:53:09;;;;;;;;;18.00;18.00;;;;;30.06;42.70;101189.84;146609;564;46012;-81
2022/06/04 05:56:01;;;;;;;;;17.25;16.50;;;;;30.22;42.36;101188.66;146611;581;46020;-81
2022/06/04 05:58:55;;;;;;;;;16.50;15.50;;;;;30.38;42.07;101190.06;146610;613;46914;-81
2022/06/04 06:01:48;;;;;;;;;17.50;16.50;;;;;30.52;42.09;101186.16;146612;566;46021;-83
2022/06/04 06:04:40;;;;;;;;;17.00;14.00;;;;;30.66;42.06;101184.03;146611;570;46014;-88
2022/06/04 06:07:33;;;;;;;;;17.00;14.75;;;;;30.71;42.03;101187.47;146613;589;46020;-85
2022/06/04 06:10:25;;;;;;;;;15.00;14.00;;;;;30.74;42.12;101192.75;146608;600;47014;-85
2022/06/04 06:13:18;;;;;;;;;18.25;16.75;;;;;30.74;41.96;101183.84;146612;577;46020;-80
2022/06/04 06:16:16;;;;;;;;;17.25;14.25;;;;;30.78;42.08;101182.84;146607;669;47014;-74
2022/06/04 06:19:09;;;;;;;;;14.75;13.25;;;;;30.83;41.70;101187.19;146607;666;46020;-81
2022/06/04 06:22:01;;;;;;;;;17.75;16.75;;;;;30.91;42.35;101175.41;146610;651;47015;-76
2022/06/04 06:24:53;;;;;;;;;17.50;13.50;;;;;31.02;42.09;101176.00;146612;655;46021;-74
2022/06/04 06:27:45;;;;;;;;;16.25;15.00;;;;;31.17;42.39;101180.94;146609;591;46913;-78
2022/06/04 06:30:38;;;;;;;;;15.50;14.50;;;;;31.36;41.96;101176.00;146609;581;46031;-72
2022/06/04 06:33:30;;;;;;;;;13.00;13.00;;;;;31.53;41.00;101178.22;146609;592;46016;-73
2022/06/04 06:36:23;;;;;;;;;13.75;11.75;;;;;31.70;40.91;101185.75;146612;590;46020;-79
2022/06/04 06:39:16;;;;;;;;;17.00;13.50;;;;;31.88;40.15;101187.03;146609;615;46016;-79
2022/06/04 06:42:09;;;;;;;;;13.50;13.00;;;;;32.00;39.99;101184.00;146612;590;47010;-78
2022/06/04 06:45:01;;;;;;;;;15.25;13.75;;;;;32.09;39.59;101188.19;146609;600;46016;-79
2022/06/04 06:47:53;;;;;;;;;12.00;12.00;;;;;32.09;38.32;101189.09;146607;569;46010;-80
2022/06/04 06:50:45;;;;;;;;;11.50;10.25;;;;;32.01;38.78;101175.03;146610;691;46012;-79
2022/06/04 06:53:38;;;;;;;;;13.75;10.75;;;;;31.75;38.62;101152.53;146614;656;46020;-80
2022/06/04 06:56:33;;;;;;;;;10.75;9.50;;;;;31.78;37.76;101183.75;146613;683;46012;-79
2022/06/04 06:59:26;;;;;;;;;10.00;9.00;;;;;31.78;39.03;101196.25;146619;570;46020;-80
2022/06/04 07:02:18;;;;;;;;;13.50;11.75;;;;;31.82;39.90;101193.44;146615;650;46914;-77
2022/06/04 07:05:11;;;;;;;;;13.00;11.75;;;;;31.81;38.73;101196.16;146612;665;46020;-78
2022/06/04 07:08:03;;;;;;;;;17.00;16.00;;;;;31.50;42.66;101205.09;146608;575;46017;-78
2022/06/04 07:10:56;;;;;;;;;14.50;14.25;;;;;31.25;43.33;101203.06;146614;624;46010;-80
2022/06/04 07:13:48;;;;;;;;;15.25;15.00;;;;;31.01;43.25;101201.03;146610;621;46914;-82
2022/06/04 07:16:41;;;;;;;;;16.00;15.00;;;;;30.93;43.58;101194.97;146605;565;46021;-84
2022/06/04 07:19:33;;;;;;;;;15.00;14.25;;;;;30.96;43.21;101193.09;146630;574;45913;-85
2022/06/04 07:22:25;;;;;;;;;13.25;12.50;;;;;30.92;42.11;101190.56;146633;610;45021;-84
2022/06/04 07:25:18;;;;;;;;;12.50;11.50;;;;;30.91;42.35;101184.31;146630;570;45913;-83
2022/06/04 07:28:10;;;;;;;;;14.50;13.75;;;;;30.91;43.27;101183.44;146633;610;45010;-84
2022/06/04 07:31:03;;;;;;;;;14.75;13.25;;;;;30.84;43.94;101193.41;146627;569;45914;-84
2022/06/04 07:33:56;;;;;;;;;18.00;15.25;;;;;30.71;44.24;101198.16;146633;671;45010;-82
2022/06/04 07:36:49;;;;;;;;;16.25;14.50;;;;;30.64;43.79;101196.56;146626;613;46013;-84
2022/06/04 07:39:41;;;;;;;;;16.75;16.75;;;;;30.57;43.92;101208.34;146634;647;45010;-84
2022/06/04 07:42:34;;;;;;;;;16.00;15.25;;;;;30.43;44.27;101213.13;146632;592;45914;-83
2022/06/04 07:45:26;;;;;;;;;20.00;18.25;;;;;30.42;44.46;101209.59;146626;589;45021;-85
2022/06/04 07:48:18;;;;;;;;;16.00;16.00;;;;;30.34;44.07;101208.88;146630;619;46014;-83
2022/06/04 07:51:10;;;;;;;;;17.50;15.50;;;;;30.41;44.13;101210.50;146634;601;45020;-85
2022/06/04 07:54:03;;;;;;;;;14.75;12.75;;;;;30.56;43.27;101203.88;146628;597;45017;-84
2022/06/04 07:56:55;;;;;;;;;15.25;13.00;;;;;30.68;42.95;101210.75;146636;628;45010;-82
2022/06/04 07:59:48;;;;;;;;;14.25;13.50;;;;;30.80;42.05;101206.00;146631;612;45914;-82
2022/06/04 08:02:42;;;;;;;;;15.50;14.00;;;;;30.91;42.50;101205.75;146633;565;45038;-83
2022/06/04 08:05:34;;;;;;;;;16.75;14.75;;;;;30.92;42.25;101209.31;146631;569;46014;-82
2022/06/04 08:08:26;;;;;;;;;12.75;12.75;;;;;31.05;42.62;101200.03;146631;563;45021;-82
2022/06/04 08:11:35;;;;;;;;;15.75;14.25;;;;;31.26;42.08;101202.13;146630;574;45016;-81
2022/06/04 08:14:29;;;;;;;;;14.00;13.75;;;;;31.57;41.41;101206.69;146626;635;45020;-81
2022/06/04 08:17:23;;;;;;;;;15.25;14.00;;;;;31.85;40.70;101204.06;146625;570;47012;-80
2022/06/04 08:20:15;;;;;;;;;15.50;13.25;;;;;32.08;40.67;101198.03;146614;582;46010;-81
2022/06/04 08:23:08;;;;;;;;;14.75;11.75;;;;;32.37;40.76;101204.34;146608;564;46014;-79
2022/06/04 08:26:00;;;;;;;;;13.75;12.50;;;;;32.60;38.54;101196.44;146613;614;46020;-81
2022/06/04 08:28:52;;;;;;;;;14.50;13.75;;;;;32.77;38.75;101197.66;146611;717;46034;-80
2022/06/04 08:31:45;;;;;;;;;16.25;14.75;;;;;32.95;38.55;101196.16;146614;627;46020;-80
2022/06/04 08:34:37;;;;;;;;;14.00;12.75;;;;;33.22;38.58;101192.56;146611;600;46012;-81
2022/06/04 08:37:29;;;;;;;;;13.75;13.25;;;;;33.40;37.84;101191.03;146614;581;46021;-80
2022/06/04 08:40:32;;;;;;;;;13.75;13.00;;;;;33.49;38.58;101187.09;146610;583;46016;-79
2022/06/04 08:43:57;;;;;;;;;14.25;14.25;;;;;33.38;37.87;101189.31;146606;615;46015;-79
2022/06/04 08:47:05;;;;;;;;;14.75;11.50;;;;;33.25;36.87;101196.94;146611;570;46016;-78
2022/06/04 08:50:18;;;;;;;;;13.25;13.00;;;;;33.09;38.46;101197.50;146610;614;47010;-79
2022/06/04 08:53:18;;;;;;;;;13.75;13.00;;;;;32.95;38.18;101198.84;146606;664;47012;-79
2022/06/04 09:00:03;;;;;;;;;15.50;15.50;;;;;32.80;38.78;101203.81;146611;605;46016;-76
2022/06/04 09:03:41;;;;;;;;;16.00;14.00;;;;;32.50;40.65;101200.34;146613;661;46010;-80
2022/06/04 09:07:03;;;;;;;;;12.75;11.25;;;;;32.22;40.57;101192.28;146611;565;46013;-78
2022/06/04 09:10:33;;;;;;;;;12.50;10.00;;;;;31.48;40.78;101116.69;146614;590;46010;-79
2022/06/04 09:13:39;;;;;;;;;12.25;11.75;;;;;31.68;40.86;101193.88;146611;583;45912;-78
2022/06/04 09:16:41;;;;;;;;;12.50;12.25;;;;;31.47;41.33;101195.34;146608;565;46010;-79
2022/06/04 09:19:42;;;;;;;;;14.25;13.25;;;;;31.32;41.27;101193.06;146630;587;45914;-77
2022/06/04 09:22:47;;;;;;;;;14.00;12.75;;;;;31.31;40.45;101199.34;146635;594;45020;-77
2022/06/04 09:26:05;;;;;;;;;12.75;10.50;;;;;31.41;40.50;101184.78;146631;565;45030;-78
2022/06/04 09:29:33;;;;;;;;;10.25;10.00;;;;;31.65;40.19;101180.53;146633;570;45011;-77
2022/06/04 09:33:27;;;;;;;;;21.25;19.00;;;;;30.97;39.65;101033.34;146630;607;45913;-77
2022/06/04 09:36:22;;;;;;;;;10.25;10.25;;;;;31.79;39.35;101184.62;146635;665;45010;-79
2022/06/04 09:39:36;;;;;;;;;15.50;10.75;;;;;31.86;39.43;101187.06;146631;574;45016;-77
2022/06/04 09:42:34;;;;;;;;;11.00;9.50;;;;;31.99;39.60;101179.53;146631;670;46010;-77
2022/06/04 09:45:32;;;;;;;;;13.25;11.50;;;;;32.19;39.63;101179.81;146631;596;45914;-75
2022/06/04 09:48:30;;;;;;;;;9.50;8.25;;;;;32.36;38.36;101186.44;146630;604;44051;-83
2022/06/04 09:51:29;;;;;;;;;11.25;10.00;;;;;32.51;38.58;101174.38;146633;617;45016;-84
2022/06/04 09:54:33;;;;;;;;;13.25;10.50;;;;;32.67;38.45;101171.12;146635;626;45020;-85
2022/06/04 09:57:37;;;;;;;;;10.75;10.75;;;;;32.80;38.36;101181.44;146631;569;45914;-89
2022/06/04 10:00:35;;;;;;;;;13.75;11.50;;;;;32.85;38.12;101169.63;146635;639;45020;-85
2022/06/04 10:03:28;;;;;;;;;12.50;11.75;;;;;32.86;37.66;101174.06;146632;609;45914;-86
2022/06/04 10:06:27;;;;;;;;;11.75;11.75;;;;;32.85;37.88;101166.94;146634;569;45021;-86
2022/06/04 10:15:53;;;;;;;;;11.50;10.50;;;;;32.79;38.58;101160.91;146632;622;45016;-85
2022/06/04 10:18:56;;;;;;;;;9.75;9.75;;;;;32.77;37.43;101157.38;146614;607;46020;-86
2022/06/04 10:21:51;;;;;;;;;14.75;12.75;;;;;31.99;38.14;101021.31;146617;571;46012;-83
2022/06/04 10:24:59;;;;;;;;;13.75;10.75;;;;;32.77;39.06;101150.19;146606;563;46020;-85
2022/06/04 10:28:35;;;;;;;;;10.75;9.50;;;;;32.71;38.60;101152.22;146610;564;46017;-85
2022/06/04 10:31:53;;;;;;;;;10.00;9.25;;;;;32.72;37.25;101154.00;146621;650;46020;-84
2022/06/04 10:35:23;;;;;;;;;10.25;10.25;;;;;32.75;36.18;101149.41;146614;618;46016;-86
2022/06/04 10:38:45;;;;;;;;;14.50;12.00;;;;;32.82;37.40;101153.62;146613;569;46020;-84
2022/06/04 10:42:00;;;;;;;;;8.75;8.50;;;;;32.61;38.16;101085.41;146608;592;47012;-79
2022/06/04 10:45:24;;;;;;;;;11.25;9.25;;;;;33.11;37.59;101135.63;146619;625;46021;-81
2022/06/04 10:49:17;;;;;;;;;11.00;10.50;;;;;32.93;37.74;101071.78;146615;569;47012;-81
2022/06/04 10:52:36;;;;;;;;;9.50;8.00;;;;;33.23;37.82;101127.12;146608;591;46010;-78
2022/06/04 10:55:53;;;;;;;;;10.00;10.00;;;;;33.09;37.97;101127.63;146615;580;47014;-81
2022/06/04 10:58:56;;;;;;;;;11.00;10.00;;;;;32.99;37.18;101126.22;146613;569;46020;-75
2022/06/04 11:02:21;;;;;;;;;13.75;12.25;;;;;32.75;37.66;101103.75;146611;600;46016;-77
2022/06/04 11:05:55;;;;;;;;;12.75;12.00;;;;;32.90;39.33;101123.81;146612;594;46021;-76
2022/06/04 11:09:03;;;;;;;;;10.50;8.00;;;;;32.91;37.79;101120.19;146608;617;47012;-77
2022/06/04 11:12:02;;;;;;;;;9.00;8.25;;;;;32.88;38.16;101109.56;146617;609;46021;-74
2022/06/04 11:15:00;;;;;;;;;11.50;9.25;;;;;32.93;37.51;101109.38;146616;633;46012;-76
2022/06/04 11:18:17;;;;;;;;;11.75;10.25;;;;;32.06;38.91;100947.75;146618;624;46020;-75
2022/06/04 11:21:37;;;;;;;;;15.75;13.00;;;;;32.08;38.79;100945.87;146612;564;46012;-74
2022/06/04 11:24:55;;;;;;;;;13.25;12.50;;;;;32.00;39.10;100945.28;146606;563;46020;-73
2022/06/04 11:28:01;;;;;;;;;20.25;18.75;;;;;32.74;38.89;101099.28;146609;581;46012;-75
2022/06/04 11:31:40;;;;;;;;;13.50;12.00;;;;;32.64;38.67;101098.72;146614;590;46010;-77
2022/06/04 11:35:01;;;;;;;;;11.50;11.00;;;;;32.55;39.58;101107.09;146610;625;46017;-74
2022/06/04 11:38:29;;;;;;;;;13.00;12.50;;;;;32.52;39.31;101104.53;146613;610;46031;-75
2022/06/04 11:41:52;;;;;;;;;13.00;11.50;;;;;32.55;40.01;101107.09;146610;625;46016;-77
2022/06/04 11:45:19;;;;;;;;;13.50;11.50;;;;;32.59;39.57;101089.97;146614;574;46020;-76
2022/06/04 11:49:03;;;;;;;;;11.00;11.00;;;;;31.68;38.67;100917.72;146612;576;46012;-76
2022/06/04 11:52:19;;;;;;;;;9.00;9.00;;;;;32.75;38.50;101086.75;146615;600;46010;-75
2022/06/04 11:56:07;;;;;;;;;10.25;10.25;;;;;32.25;38.71;100982.00;146616;577;46012;-75
2022/06/04 11:59:23;;;;;;;;;11.00;11.00;;;;;32.97;38.39;101082.41;146604;599;47010;-75
2022/06/04 12:02:27;;;;;;;;;13.50;12.75;;;;;33.10;38.01;101077.47;146609;603;46016;-75
2022/06/04 12:06:04;;;;;;;;;12.75;11.75;;;;;33.15;37.91;101064.75;146612;605;46021;-75
2022/06/04 12:09:23;;;;;;;;;14.00;11.75;;;;;33.25;36.61;101062.56;146611;563;46012;-74
2022/06/04 12:12:29;;;;;;;;;10.75;10.75;;;;;33.32;37.50;101061.41;146613;602;46021;-75
2022/06/04 12:15:46;;;;;;;;;13.50;10.25;;;;;32.54;36.92;100916.56;146609;609;46016;-75
2022/06/04 12:18:52;;;;;;;;;12.50;12.50;;;;;33.32;37.04;101050.66;146612;661;47010;-75
2022/06/04 12:25:03;;;;;;;;;11.25;10.75;;;;;33.15;36.76;101045.94;146614;591;46038;-76
2022/06/04 12:28:04;;;;;;;;;14.00;12.25;;;;;33.03;36.78;101044.56;146611;609;46017;-75
2022/06/04 12:30:56;;;;;;;;;12.25;12.25;;;;;33.04;37.57;101045.44;146609;607;46020;-75
2022/06/04 12:33:55;;;;;;;;;11.00;11.00;;;;;33.05;38.26;101048.06;146611;626;46015;-76
2022/06/04 12:36:55;;;;;;;;;17.00;12.00;;;;;33.13;37.91;101047.78;146615;578;46020;-72
2022/06/04 12:39:48;;;;;;;;;14.00;13.00;;;;;33.23;37.47;101051.88;146610;609;46012;-71
2022/06/04 12:42:40;;;;;;;;;12.75;12.00;;;;;33.31;37.15;101044.41;146613;569;46021;-72
2022/06/04 12:46:09;;;;;;;;;12.25;11.25;;;;;32.37;37.64;100887.66;146611;583;46016;-74
2022/06/04 12:49:20;;;;;;;;;14.50;11.50;;;;;33.37;36.93;101050.50;146613;580;46010;-73
2022/06/04 12:52:35;;;;;;;;;15.00;13.25;;;;;33.41;37.79;101038.69;146610;575;46016;-72
2022/06/04 12:55:51;;;;;;;;;10.25;6.25;;;;;33.37;38.88;101048.69;146611;635;47015;-72
2022/06/04 12:58:55;;;;;;;;;12.00;11.50;;;;;33.29;38.93;101042.69;146615;617;46019;-71
2022/06/04 13:01:47;;;;;;;;;12.00;11.25;;;;;33.24;38.20;101042.00;146605;578;46020;-71
2022/06/04 13:04:40;;;;;;;;;11.50;11.00;;;;;33.25;38.13;101030.34;146609;564;46017;-71
2022/06/04 13:07:33;;;;;;;;;13.00;11.75;;;;;33.23;38.62;101029.50;146613;573;46020;-70
2022/06/04 13:11:09;;;;;;;;;13.75;12.75;;;;;33.10;38.91;101032.66;146610;571;46029;-69
2022/06/04 13:14:55;;;;;;;;;14.00;13.00;;;;;33.09;38.51;101033.59;146612;573;46020;-70
2022/06/04 13:17:53;;;;;;;;;12.75;12.25;;;;;33.08;38.29;101031.81;146611;580;46017;-70
2022/06/04 13:20:56;;;;;;;;;11.75;10.75;;;;;33.07;37.75;101030.06;146615;595;46021;-71
2022/06/04 13:24:03;;;;;;;;;12.00;11.25;;;;;33.11;37.05;101025.47;146609;573;47012;-69
2022/06/04 13:27:10;;;;;;;;;15.00;13.00;;;;;33.13;37.11;101020.03;146615;620;46010;-71
2022/06/04 13:30:02;;;;;;;;;12.75;12.75;;;;;33.09;37.19;101025.53;146608;606;46012;-71
2022/06/04 13:32:55;;;;;;;;;15.25;12.75;;;;;33.09;36.46;101022.84;146607;580;46021;-74
2022/06/04 13:35:51;;;;;;;;;12.25;11.75;;;;;33.10;36.65;101018.34;146611;625;46016;-70
2022/06/04 13:38:46;;;;;;;;;13.00;11.00;;;;;33.09;36.51;101011.22;146611;714;46020;-69
2022/06/04 13:44:58;;;;;;;;;18.50;14.50;;;;;33.07;36.71;101010.41;146613;617;46014;-72
2022/06/04 13:48:02;;;;;;;;;12.75;12.75;;;;;33.08;35.91;101001.41;146609;575;46016;-71
2022/06/04 13:51:00;;;;;;;;;13.75;12.50;;;;;33.06;36.26;100987.16;146614;654;46020;-72
2022/06/04 13:53:55;;;;;;;;;13.00;11.25;;;;;33.10;35.49;100992.34;146610;599;46012;-73
2022/06/04 13:56:47;;;;;;;;;15.25;13.50;;;;;33.13;35.58;100985.13;146611;565;47010;-74
2022/06/04 13:59:51;;;;;;;;;15.00;14.25;;;;;33.14;36.27;100981.47;146609;578;46016;-74
2022/06/04 14:02:45;;;;;;;;;11.00;11.00;;;;;33.24;35.67;100985.56;146607;583;46021;-72
2022/06/04 14:05:46;;;;;;;;;12.00;12.00;;;;;33.23;35.23;100981.12;146609;583;46016;-73
2022/06/04 14:09:02;;;;;;;;;12.75;12.00;;;;;32.56;36.61;100866.41;146611;573;47010;-73
2022/06/04 14:12:19;;;;;;;;;12.75;12.25;;;;;32.22;34.13;100818.44;146610;564;47012;-73
2022/06/04 14:15:50;;;;;;;;;11.00;11.00;;;;;33.18;36.21;100975.94;146610;586;46020;-73